sensor_id;sensor_type;location;lat;lon;timestamp;temperature;humidity
78448;SHT31;67742;51.972;5.682;2024-02-14T00:00:32;11.0;73.7
78448;SHT31;67742;51.972;5.682;2024-02-14T00:03:01;11.0;73.8
78448;SHT31;67742;51.972;5.682;2024-02-14T00:05:30;11.0;73.9
78448;SHT31;67742;51.972;5.682;2024-02-14T00:07:59;11.0;73.9
78448;SHT31;67742;51.972;5.682;2024-02-14T00:10:27;10.9;74.0
78448;SHT31;67742;51.972;5.682;2024-02-14T00:12:56;10.9;74.2
78448;SHT31;67742;51.972;5.682;2024-02-14T00:15:25;10.9;74.3
78448;SHT31;67742;51.972;5.682;2024-02-14T00:17:53;10.9;74.4
78448;SHT31;67742;51.972;5.682;2024-02-14T00:20:22;10.9;74.5
78448;SHT31;67742;51.972;5.682;2024-02-14T00:22:51;10.9;74.7
78448;SHT31;67742;51.972;5.682;2024-02-14T00:25:19;10.9;74.7
78448;SHT31;67742;51.972;5.682;2024-02-14T00:27:47;10.9;74.8
78448;SHT31;67742;51.972;5.682;2024-02-14T00:30:16;10.9;74.9
78448;SHT31;67742;51.972;5.682;2024-02-14T00:32:45;10.9;75.0
78448;SHT31;67742;51.972;5.682;2024-02-14T00:35:14;11.0;75.0
78448;SHT31;67742;51.972;5.682;2024-02-14T00:37:43;11.0;75.1
78448;SHT31;67742;51.972;5.682;2024-02-14T00:40:12;11.0;75.2
78448;SHT31;67742;51.972;5.682;2024-02-14T00:42:41;11.0;75.3
78448;SHT31;67742;51.972;5.682;2024-02-14T00:45:10;11.0;75.3
78448;SHT31;67742;51.972;5.682;2024-02-14T00:47:39;11.0;75.3
78448;SHT31;67742;51.972;5.682;2024-02-14T00:50:09;11.0;75.3
78448;SHT31;67742;51.972;5.682;2024-02-14T00:52:40;11.0;75.2
78448;SHT31;67742;51.972;5.682;2024-02-14T00:55:10;11.0;75.3
78448;SHT31;67742;51.972;5.682;2024-02-14T00:57:40;11.1;75.3
78448;SHT31;67742;51.972;5.682;2024-02-14T01:00:09;11.1;75.4
78448;SHT31;67742;51.972;5.682;2024-02-14T01:02:38;11.1;75.4
78448;SHT31;67742;51.972;5.682;2024-02-14T01:05:07;11.1;75.4
78448;SHT31;67742;51.972;5.682;2024-02-14T01:07:36;11.1;75.4
78448;SHT31;67742;51.972;5.682;2024-02-14T01:10:05;11.1;75.4
78448;SHT31;67742;51.972;5.682;2024-02-14T01:12:34;11.1;75.5
78448;SHT31;67742;51.972;5.682;2024-02-14T01:15:03;11.2;75.5
78448;SHT31;67742;51.972;5.682;2024-02-14T01:17:32;11.2;75.6
78448;SHT31;67742;51.972;5.682;2024-02-14T01:20:03;11.2;75.6
78448;SHT31;67742;51.972;5.682;2024-02-14T01:22:32;11.2;75.4
78448;SHT31;67742;51.972;5.682;2024-02-14T01:25:00;11.3;75.2
78448;SHT31;67742;51.972;5.682;2024-02-14T01:27:29;11.3;75.3
78448;SHT31;67742;51.972;5.682;2024-02-14T01:29:57;11.3;75.3
78448;SHT31;67742;51.972;5.682;2024-02-14T01:32:26;11.3;75.4
78448;SHT31;67742;51.972;5.682;2024-02-14T01:34:56;11.3;75.3
78448;SHT31;67742;51.972;5.682;2024-02-14T01:37:28;11.3;75.3
78448;SHT31;67742;51.972;5.682;2024-02-14T01:39:57;11.3;75.4
78448;SHT31;67742;51.972;5.682;2024-02-14T01:42:25;11.4;75.3
78448;SHT31;67742;51.972;5.682;2024-02-14T01:44:54;11.4;75.3
78448;SHT31;67742;51.972;5.682;2024-02-14T01:47:22;11.4;75.3
78448;SHT31;67742;51.972;5.682;2024-02-14T01:49:53;11.4;75.3
78448;SHT31;67742;51.972;5.682;2024-02-14T01:52:22;11.4;75.3
78448;SHT31;67742;51.972;5.682;2024-02-14T01:54:51;11.4;75.3
78448;SHT31;67742;51.972;5.682;2024-02-14T01:57:22;11.5;75.4
78448;SHT31;67742;51.972;5.682;2024-02-14T01:59:54;11.5;75.4
78448;SHT31;67742;51.972;5.682;2024-02-14T02:02:26;11.5;75.4
78448;SHT31;67742;51.972;5.682;2024-02-14T02:04:55;11.5;75.5
78448;SHT31;67742;51.972;5.682;2024-02-14T02:07:23;11.5;75.8
78448;SHT31;67742;51.972;5.682;2024-02-14T02:09:54;11.6;75.6
78448;SHT31;67742;51.972;5.682;2024-02-14T02:12:22;11.6;75.6
78448;SHT31;67742;51.972;5.682;2024-02-14T02:14:51;11.6;75.6
78448;SHT31;67742;51.972;5.682;2024-02-14T02:17:19;11.6;75.7
78448;SHT31;67742;51.972;5.682;2024-02-14T02:19:48;11.6;75.7
78448;SHT31;67742;51.972;5.682;2024-02-14T02:22:16;11.6;75.7
78448;SHT31;67742;51.972;5.682;2024-02-14T02:24:45;11.6;75.8
78448;SHT31;67742;51.972;5.682;2024-02-14T02:27:14;11.6;75.9
78448;SHT31;67742;51.972;5.682;2024-02-14T02:29:43;11.6;75.9
78448;SHT31;67742;51.972;5.682;2024-02-14T02:32:14;11.6;75.9
78448;SHT31;67742;51.972;5.682;2024-02-14T02:34:44;11.6;75.9
78448;SHT31;67742;51.972;5.682;2024-02-14T02:37:13;11.7;76.0
78448;SHT31;67742;51.972;5.682;2024-02-14T02:39:43;11.7;76.0
78448;SHT31;67742;51.972;5.682;2024-02-14T02:42:11;11.7;76.1
78448;SHT31;67742;51.972;5.682;2024-02-14T02:44:40;11.7;76.2
78448;SHT31;67742;51.972;5.682;2024-02-14T02:47:09;11.7;76.3
78448;SHT31;67742;51.972;5.682;2024-02-14T02:49:39;11.7;76.3
78448;SHT31;67742;51.972;5.682;2024-02-14T02:52:08;11.7;76.4
78448;SHT31;67742;51.972;5.682;2024-02-14T02:54:37;11.7;76.4
78448;SHT31;67742;51.972;5.682;2024-02-14T02:57:07;11.7;76.6
78448;SHT31;67742;51.972;5.682;2024-02-14T02:59:36;11.7;76.5
78448;SHT31;67742;51.972;5.682;2024-02-14T03:02:09;11.7;76.5
78448;SHT31;67742;51.972;5.682;2024-02-14T03:04:38;11.7;76.6
78448;SHT31;67742;51.972;5.682;2024-02-14T03:07:08;11.7;76.5
78448;SHT31;67742;51.972;5.682;2024-02-14T03:09:37;11.7;76.7
78448;SHT31;67742;51.972;5.682;2024-02-14T03:12:07;11.7;76.6
78448;SHT31;67742;51.972;5.682;2024-02-14T03:14:35;11.7;76.7
78448;SHT31;67742;51.972;5.682;2024-02-14T03:17:05;11.7;76.7
78448;SHT31;67742;51.972;5.682;2024-02-14T03:19:36;11.7;76.7
78448;SHT31;67742;51.972;5.682;2024-02-14T03:22:05;11.7;76.7
78448;SHT31;67742;51.972;5.682;2024-02-14T03:24:35;11.8;76.8
78448;SHT31;67742;51.972;5.682;2024-02-14T03:27:05;11.8;76.9
78448;SHT31;67742;51.972;5.682;2024-02-14T03:29:33;11.8;76.8
78448;SHT31;67742;51.972;5.682;2024-02-14T03:32:01;11.8;76.9
78448;SHT31;67742;51.972;5.682;2024-02-14T03:34:32;11.8;77.0
78448;SHT31;67742;51.972;5.682;2024-02-14T03:37:02;11.8;77.0
78448;SHT31;67742;51.972;5.682;2024-02-14T03:39:33;11.8;76.9
78448;SHT31;67742;51.972;5.682;2024-02-14T03:42:03;11.8;77.0
78448;SHT31;67742;51.972;5.682;2024-02-14T03:44:34;11.8;77.1
78448;SHT31;67742;51.972;5.682;2024-02-14T03:47:04;11.9;77.0
78448;SHT31;67742;51.972;5.682;2024-02-14T03:49:33;11.9;77.0
78448;SHT31;67742;51.972;5.682;2024-02-14T03:52:01;11.9;77.0
78448;SHT31;67742;51.972;5.682;2024-02-14T03:54:34;11.9;77.0
78448;SHT31;67742;51.972;5.682;2024-02-14T03:57:03;11.9;76.9
78448;SHT31;67742;51.972;5.682;2024-02-14T03:59:35;11.9;76.9
78448;SHT31;67742;51.972;5.682;2024-02-14T04:02:06;12.0;76.9
78448;SHT31;67742;51.972;5.682;2024-02-14T04:04:36;12.0;76.8
78448;SHT31;67742;51.972;5.682;2024-02-14T04:07:05;12.0;76.7
78448;SHT31;67742;51.972;5.682;2024-02-14T04:09:35;12.0;76.7
78448;SHT31;67742;51.972;5.682;2024-02-14T04:12:04;12.0;76.7
78448;SHT31;67742;51.972;5.682;2024-02-14T04:14:36;12.0;76.8
78448;SHT31;67742;51.972;5.682;2024-02-14T04:17:06;12.0;76.7
78448;SHT31;67742;51.972;5.682;2024-02-14T04:19:37;12.0;76.7
78448;SHT31;67742;51.972;5.682;2024-02-14T04:22:06;12.0;76.7
78448;SHT31;67742;51.972;5.682;2024-02-14T04:24:38;12.1;76.8
78448;SHT31;67742;51.972;5.682;2024-02-14T04:27:06;12.1;76.8
78448;SHT31;67742;51.972;5.682;2024-02-14T04:29:35;12.1;76.9
78448;SHT31;67742;51.972;5.682;2024-02-14T04:32:03;12.1;76.8
78448;SHT31;67742;51.972;5.682;2024-02-14T04:34:32;12.1;76.9
78448;SHT31;67742;51.972;5.682;2024-02-14T04:37:00;12.1;76.9
78448;SHT31;67742;51.972;5.682;2024-02-14T04:39:34;12.1;76.9
78448;SHT31;67742;51.972;5.682;2024-02-14T04:42:03;12.1;77.0
78448;SHT31;67742;51.972;5.682;2024-02-14T04:44:33;12.1;77.0
78448;SHT31;67742;51.972;5.682;2024-02-14T04:47:02;12.1;77.0
78448;SHT31;67742;51.972;5.682;2024-02-14T04:49:31;12.1;77.0
78448;SHT31;67742;51.972;5.682;2024-02-14T04:51:59;12.2;77.1
78448;SHT31;67742;51.972;5.682;2024-02-14T04:54:28;12.2;77.1
78448;SHT31;67742;51.972;5.682;2024-02-14T04:56:56;12.2;77.0
78448;SHT31;67742;51.972;5.682;2024-02-14T04:59:25;12.2;77.0
78448;SHT31;67742;51.972;5.682;2024-02-14T05:01:54;12.2;76.9
78448;SHT31;67742;51.972;5.682;2024-02-14T05:04:23;12.2;76.8
78448;SHT31;67742;51.972;5.682;2024-02-14T05:06:51;12.2;76.9
78448;SHT31;67742;51.972;5.682;2024-02-14T05:09:22;12.3;76.9
78448;SHT31;67742;51.972;5.682;2024-02-14T05:11:50;12.3;76.8
78448;SHT31;67742;51.972;5.682;2024-02-14T05:14:19;12.3;76.7
78448;SHT31;67742;51.972;5.682;2024-02-14T05:16:48;12.3;76.6
78448;SHT31;67742;51.972;5.682;2024-02-14T05:19:16;12.3;76.6
78448;SHT31;67742;51.972;5.682;2024-02-14T05:21:48;12.3;76.6
78448;SHT31;67742;51.972;5.682;2024-02-14T05:24:16;12.4;76.5
78448;SHT31;67742;51.972;5.682;2024-02-14T05:26:45;12.4;76.5
78448;SHT31;67742;51.972;5.682;2024-02-14T05:29:13;12.4;76.4
78448;SHT31;67742;51.972;5.682;2024-02-14T05:31:46;12.4;76.4
78448;SHT31;67742;51.972;5.682;2024-02-14T05:34:15;12.4;76.4
78448;SHT31;67742;51.972;5.682;2024-02-14T05:36:43;12.4;76.3
78448;SHT31;67742;51.972;5.682;2024-02-14T05:39:13;12.4;76.3
78448;SHT31;67742;51.972;5.682;2024-02-14T05:41:42;12.4;76.3
78448;SHT31;67742;51.972;5.682;2024-02-14T05:44:11;12.4;76.3
78448;SHT31;67742;51.972;5.682;2024-02-14T05:46:40;12.4;76.4
78448;SHT31;67742;51.972;5.682;2024-02-14T05:49:09;12.4;76.4
78448;SHT31;67742;51.972;5.682;2024-02-14T05:51:38;12.4;76.4
78448;SHT31;67742;51.972;5.682;2024-02-14T05:54:07;12.4;76.4
78448;SHT31;67742;51.972;5.682;2024-02-14T05:56:35;12.4;76.4
78448;SHT31;67742;51.972;5.682;2024-02-14T05:59:04;12.5;76.4
78448;SHT31;67742;51.972;5.682;2024-02-14T06:01:32;12.5;76.4
78448;SHT31;67742;51.972;5.682;2024-02-14T06:04:01;12.5;76.3
78448;SHT31;67742;51.972;5.682;2024-02-14T06:06:30;12.5;76.2
78448;SHT31;67742;51.972;5.682;2024-02-14T06:08:59;12.5;76.2
78448;SHT31;67742;51.972;5.682;2024-02-14T06:11:29;12.5;76.2
78448;SHT31;67742;51.972;5.682;2024-02-14T06:13:57;12.5;76.2
78448;SHT31;67742;51.972;5.682;2024-02-14T06:16:26;12.6;76.2
78448;SHT31;67742;51.972;5.682;2024-02-14T06:18:54;12.6;76.2
78448;SHT31;67742;51.972;5.682;2024-02-14T06:21:22;12.6;76.2
78448;SHT31;67742;51.972;5.682;2024-02-14T06:23:52;12.6;76.2
78448;SHT31;67742;51.972;5.682;2024-02-14T06:26:21;12.6;76.2
78448;SHT31;67742;51.972;5.682;2024-02-14T06:28:49;12.6;76.2
78448;SHT31;67742;51.972;5.682;2024-02-14T06:31:22;12.6;76.2
78448;SHT31;67742;51.972;5.682;2024-02-14T06:33:51;12.6;76.2
78448;SHT31;67742;51.972;5.682;2024-02-14T06:36:19;12.6;76.2
78448;SHT31;67742;51.972;5.682;2024-02-14T06:38:48;12.6;76.3
78448;SHT31;67742;51.972;5.682;2024-02-14T06:41:17;12.6;76.3
78448;SHT31;67742;51.972;5.682;2024-02-14T06:43:46;12.6;76.4
78448;SHT31;67742;51.972;5.682;2024-02-14T06:46:15;12.6;76.4
78448;SHT31;67742;51.972;5.682;2024-02-14T06:48:44;12.6;76.4
78448;SHT31;67742;51.972;5.682;2024-02-14T06:51:12;12.6;76.4
78448;SHT31;67742;51.972;5.682;2024-02-14T06:53:41;12.6;76.4
78448;SHT31;67742;51.972;5.682;2024-02-14T06:56:09;12.6;76.5
78448;SHT31;67742;51.972;5.682;2024-02-14T06:58:38;12.6;76.6
78448;SHT31;67742;51.972;5.682;2024-02-14T07:01:06;12.6;76.6
78448;SHT31;67742;51.972;5.682;2024-02-14T07:03:34;12.6;76.5
78448;SHT31;67742;51.972;5.682;2024-02-14T07:06:03;12.6;76.6
78448;SHT31;67742;51.972;5.682;2024-02-14T07:08:32;12.6;76.6
78448;SHT31;67742;51.972;5.682;2024-02-14T07:11:00;12.6;76.6
78448;SHT31;67742;51.972;5.682;2024-02-14T07:13:31;12.6;76.6
78448;SHT31;67742;51.972;5.682;2024-02-14T07:15:59;12.7;76.6
78448;SHT31;67742;51.972;5.682;2024-02-14T07:18:28;12.7;76.6
78448;SHT31;67742;51.972;5.682;2024-02-14T07:20:57;12.7;76.5
78448;SHT31;67742;51.972;5.682;2024-02-14T07:23:25;12.7;76.4
78448;SHT31;67742;51.972;5.682;2024-02-14T07:25:54;12.7;76.4
78448;SHT31;67742;51.972;5.682;2024-02-14T07:28:23;12.7;76.4
78448;SHT31;67742;51.972;5.682;2024-02-14T07:30:51;12.7;76.4
78448;SHT31;67742;51.972;5.682;2024-02-14T07:33:19;12.7;76.4
78448;SHT31;67742;51.972;5.682;2024-02-14T07:35:48;12.8;76.5
78448;SHT31;67742;51.972;5.682;2024-02-14T07:38:18;12.8;76.5
78448;SHT31;67742;51.972;5.682;2024-02-14T07:40:49;12.8;76.6
78448;SHT31;67742;51.972;5.682;2024-02-14T07:43:19;12.8;76.6
78448;SHT31;67742;51.972;5.682;2024-02-14T07:45:48;12.8;76.6
78448;SHT31;67742;51.972;5.682;2024-02-14T07:48:16;12.8;76.6
78448;SHT31;67742;51.972;5.682;2024-02-14T07:50:45;12.8;76.6
78448;SHT31;67742;51.972;5.682;2024-02-14T07:53:13;12.8;76.6
78448;SHT31;67742;51.972;5.682;2024-02-14T07:55:42;12.8;76.7
78448;SHT31;67742;51.972;5.682;2024-02-14T07:58:10;12.8;76.8
78448;SHT31;67742;51.972;5.682;2024-02-14T08:00:41;12.8;76.9
78448;SHT31;67742;51.972;5.682;2024-02-14T08:03:09;12.8;76.9
78448;SHT31;67742;51.972;5.682;2024-02-14T08:05:37;12.8;76.9
78448;SHT31;67742;51.972;5.682;2024-02-14T08:08:09;12.8;76.9
78448;SHT31;67742;51.972;5.682;2024-02-14T08:10:38;12.9;77.0
78448;SHT31;67742;51.972;5.682;2024-02-14T08:13:07;12.9;77.0
78448;SHT31;67742;51.972;5.682;2024-02-14T08:15:37;12.9;76.9
78448;SHT31;67742;51.972;5.682;2024-02-14T08:18:06;12.9;76.8
78448;SHT31;67742;51.972;5.682;2024-02-14T08:20:34;12.9;76.8
78448;SHT31;67742;51.972;5.682;2024-02-14T08:23:03;12.9;76.8
78448;SHT31;67742;51.972;5.682;2024-02-14T08:25:32;12.9;76.7
78448;SHT31;67742;51.972;5.682;2024-02-14T08:28:03;12.9;76.7
78448;SHT31;67742;51.972;5.682;2024-02-14T08:30:34;12.9;76.8
78448;SHT31;67742;51.972;5.682;2024-02-14T08:33:04;12.9;76.8
78448;SHT31;67742;51.972;5.682;2024-02-14T08:35:32;13.0;76.8
78448;SHT31;67742;51.972;5.682;2024-02-14T08:38:01;13.0;76.7
78448;SHT31;67742;51.972;5.682;2024-02-14T08:40:29;13.0;76.8
78448;SHT31;67742;51.972;5.682;2024-02-14T08:42:58;13.0;76.8
78448;SHT31;67742;51.972;5.682;2024-02-14T08:45:27;12.9;77.0
78448;SHT31;67742;51.972;5.682;2024-02-14T08:47:56;12.9;77.2
78448;SHT31;67742;51.972;5.682;2024-02-14T08:50:25;12.9;77.3
78448;SHT31;67742;51.972;5.682;2024-02-14T08:52:53;12.9;77.5
78448;SHT31;67742;51.972;5.682;2024-02-14T08:55:22;12.9;77.6
78448;SHT31;67742;51.972;5.682;2024-02-14T08:57:52;13.0;77.6
78448;SHT31;67742;51.972;5.682;2024-02-14T09:00:21;13.0;77.7
78448;SHT31;67742;51.972;5.682;2024-02-14T09:02:50;13.0;77.8
78448;SHT31;67742;51.972;5.682;2024-02-14T09:05:18;13.0;78.0
78448;SHT31;67742;51.972;5.682;2024-02-14T09:07:48;13.0;78.0
78448;SHT31;67742;51.972;5.682;2024-02-14T09:10:16;13.0;78.1
78448;SHT31;67742;51.972;5.682;2024-02-14T09:12:45;13.1;77.7
78448;SHT31;67742;51.972;5.682;2024-02-14T09:15:14;13.1;77.6
78448;SHT31;67742;51.972;5.682;2024-02-14T09:17:44;13.1;77.6
78448;SHT31;67742;51.972;5.682;2024-02-14T09:20:13;13.1;77.4
78448;SHT31;67742;51.972;5.682;2024-02-14T09:22:41;13.1;77.3
78448;SHT31;67742;51.972;5.682;2024-02-14T09:25:10;13.1;77.4
78448;SHT31;67742;51.972;5.682;2024-02-14T09:27:39;13.1;77.3
78448;SHT31;67742;51.972;5.682;2024-02-14T09:30:13;13.1;77.3
78448;SHT31;67742;51.972;5.682;2024-02-14T09:32:44;13.2;77.2
78448;SHT31;67742;51.972;5.682;2024-02-14T09:35:13;13.2;77.3
78448;SHT31;67742;51.972;5.682;2024-02-14T09:37:44;13.2;77.4
78448;SHT31;67742;51.972;5.682;2024-02-14T09:40:15;13.2;77.4
78448;SHT31;67742;51.972;5.682;2024-02-14T09:42:53;13.2;77.4
78448;SHT31;67742;51.972;5.682;2024-02-14T09:45:25;13.2;77.3
78448;SHT31;67742;51.972;5.682;2024-02-14T09:47:54;13.3;77.3
78448;SHT31;67742;51.972;5.682;2024-02-14T09:50:26;13.3;77.2
78448;SHT31;67742;51.972;5.682;2024-02-14T09:53:02;13.3;77.1
78448;SHT31;67742;51.972;5.682;2024-02-14T09:55:31;13.3;77.1
78448;SHT31;67742;51.972;5.682;2024-02-14T09:58:00;13.3;77.1
78448;SHT31;67742;51.972;5.682;2024-02-14T10:00:35;13.3;77.2
78448;SHT31;67742;51.972;5.682;2024-02-14T10:03:07;13.3;77.2
78448;SHT31;67742;51.972;5.682;2024-02-14T10:05:36;13.3;77.2
78448;SHT31;67742;51.972;5.682;2024-02-14T10:08:05;13.3;77.1
78448;SHT31;67742;51.972;5.682;2024-02-14T10:10:35;13.4;77.2
78448;SHT31;67742;51.972;5.682;2024-02-14T10:13:06;13.4;77.1
78448;SHT31;67742;51.972;5.682;2024-02-14T10:15:35;13.4;77.1
78448;SHT31;67742;51.972;5.682;2024-02-14T10:18:04;13.4;76.9
78448;SHT31;67742;51.972;5.682;2024-02-14T10:20:36;13.5;76.9
78448;SHT31;67742;51.972;5.682;2024-02-14T10:23:11;13.5;77.0
78448;SHT31;67742;51.972;5.682;2024-02-14T10:25:40;13.5;76.9
78448;SHT31;67742;51.972;5.682;2024-02-14T10:28:09;13.5;77.0
78448;SHT31;67742;51.972;5.682;2024-02-14T10:30:38;13.5;77.1
78448;SHT31;67742;51.972;5.682;2024-02-14T10:33:08;13.6;77.2
78448;SHT31;67742;51.972;5.682;2024-02-14T10:35:38;13.6;77.1
78448;SHT31;67742;51.972;5.682;2024-02-14T10:38:09;13.6;77.0
78448;SHT31;67742;51.972;5.682;2024-02-14T10:40:38;13.6;76.9
78448;SHT31;67742;51.972;5.682;2024-02-14T10:43:09;13.7;76.9
78448;SHT31;67742;51.972;5.682;2024-02-14T10:45:38;13.7;76.8
78448;SHT31;67742;51.972;5.682;2024-02-14T10:48:11;13.7;76.9
78448;SHT31;67742;51.972;5.682;2024-02-14T10:50:43;13.7;76.9
78448;SHT31;67742;51.972;5.682;2024-02-14T10:53:14;13.7;76.8
78448;SHT31;67742;51.972;5.682;2024-02-14T10:55:47;13.8;76.8
78448;SHT31;67742;51.972;5.682;2024-02-14T10:58:16;13.8;76.8
78448;SHT31;67742;51.972;5.682;2024-02-14T11:00:47;13.8;76.9
78448;SHT31;67742;51.972;5.682;2024-02-14T11:03:17;13.8;77.1
78448;SHT31;67742;51.972;5.682;2024-02-14T11:05:48;13.9;77.0
78448;SHT31;67742;51.972;5.682;2024-02-14T11:08:19;13.9;76.9
78448;SHT31;67742;51.972;5.682;2024-02-14T11:10:56;13.9;76.8
78448;SHT31;67742;51.972;5.682;2024-02-14T11:13:29;13.9;76.8
78448;SHT31;67742;51.972;5.682;2024-02-14T11:16:00;14.0;76.8
78448;SHT31;67742;51.972;5.682;2024-02-14T11:18:33;14.0;76.7
78448;SHT31;67742;51.972;5.682;2024-02-14T11:21:17;14.0;76.7
78448;SHT31;67742;51.972;5.682;2024-02-14T11:23:54;14.0;76.7
78448;SHT31;67742;51.972;5.682;2024-02-14T11:26:36;14.0;76.7
78448;SHT31;67742;51.972;5.682;2024-02-14T11:29:04;14.0;76.7
78448;SHT31;67742;51.972;5.682;2024-02-14T11:31:35;14.0;76.6
78448;SHT31;67742;51.972;5.682;2024-02-14T11:34:05;14.1;76.7
78448;SHT31;67742;51.972;5.682;2024-02-14T11:36:35;14.1;76.5
78448;SHT31;67742;51.972;5.682;2024-02-14T11:39:05;14.1;76.4
78448;SHT31;67742;51.972;5.682;2024-02-14T11:41:35;14.1;76.3
78448;SHT31;67742;51.972;5.682;2024-02-14T11:44:05;14.1;76.3
78448;SHT31;67742;51.972;5.682;2024-02-14T11:46:36;14.1;76.2
78448;SHT31;67742;51.972;5.682;2024-02-14T11:49:05;14.1;76.2
78448;SHT31;67742;51.972;5.682;2024-02-14T11:51:36;14.1;76.2
78448;SHT31;67742;51.972;5.682;2024-02-14T11:54:05;14.1;76.1
78448;SHT31;67742;51.972;5.682;2024-02-14T11:56:36;14.1;76.2
78448;SHT31;67742;51.972;5.682;2024-02-14T11:59:07;14.1;76.2
78448;SHT31;67742;51.972;5.682;2024-02-14T12:01:37;14.1;76.2
78448;SHT31;67742;51.972;5.682;2024-02-14T12:04:09;14.1;76.3
78448;SHT31;67742;51.972;5.682;2024-02-14T12:06:39;14.1;76.4
78448;SHT31;67742;51.972;5.682;2024-02-14T12:09:11;14.1;76.4
78448;SHT31;67742;51.972;5.682;2024-02-14T12:11:41;14.1;76.6
78448;SHT31;67742;51.972;5.682;2024-02-14T12:14:12;14.1;76.6
78448;SHT31;67742;51.972;5.682;2024-02-14T12:16:41;14.1;76.6
78448;SHT31;67742;51.972;5.682;2024-02-14T12:19:16;14.1;76.6
78448;SHT31;67742;51.972;5.682;2024-02-14T12:21:46;14.2;76.6
78448;SHT31;67742;51.972;5.682;2024-02-14T12:24:16;14.2;76.7
78448;SHT31;67742;51.972;5.682;2024-02-14T12:26:45;14.2;76.7
78448;SHT31;67742;51.972;5.682;2024-02-14T12:29:16;14.2;76.7
78448;SHT31;67742;51.972;5.682;2024-02-14T12:31:46;14.2;76.6
78448;SHT31;67742;51.972;5.682;2024-02-14T12:34:15;14.2;76.5
78448;SHT31;67742;51.972;5.682;2024-02-14T12:36:44;14.2;76.5
78448;SHT31;67742;51.972;5.682;2024-02-14T12:39:13;14.2;76.5
78448;SHT31;67742;51.972;5.682;2024-02-14T12:41:41;14.2;76.4
78448;SHT31;67742;51.972;5.682;2024-02-14T12:44:10;14.2;76.4
78448;SHT31;67742;51.972;5.682;2024-02-14T12:46:38;14.3;76.3
78448;SHT31;67742;51.972;5.682;2024-02-14T12:49:07;14.3;76.2
78448;SHT31;67742;51.972;5.682;2024-02-14T12:51:37;14.3;76.1
78448;SHT31;67742;51.972;5.682;2024-02-14T12:54:06;14.3;76.2
78448;SHT31;67742;51.972;5.682;2024-02-14T12:56:36;14.3;76.2
78448;SHT31;67742;51.972;5.682;2024-02-14T12:59:05;14.3;76.2
78448;SHT31;67742;51.972;5.682;2024-02-14T13:01:36;14.3;76.1
78448;SHT31;67742;51.972;5.682;2024-02-14T13:04:07;14.3;76.1
78448;SHT31;67742;51.972;5.682;2024-02-14T13:06:36;14.3;76.2
78448;SHT31;67742;51.972;5.682;2024-02-14T13:09:08;14.3;76.2
78448;SHT31;67742;51.972;5.682;2024-02-14T13:11:37;14.3;76.3
78448;SHT31;67742;51.972;5.682;2024-02-14T13:14:07;14.3;76.3
78448;SHT31;67742;51.972;5.682;2024-02-14T13:16:36;14.3;76.2
78448;SHT31;67742;51.972;5.682;2024-02-14T13:19:05;14.3;76.2
78448;SHT31;67742;51.972;5.682;2024-02-14T13:21:33;14.3;76.2
78448;SHT31;67742;51.972;5.682;2024-02-14T13:24:02;14.3;76.3
78448;SHT31;67742;51.972;5.682;2024-02-14T13:26:31;14.3;76.3
78448;SHT31;67742;51.972;5.682;2024-02-14T13:29:00;14.3;76.4
78448;SHT31;67742;51.972;5.682;2024-02-14T13:31:29;14.3;76.5
78448;SHT31;67742;51.972;5.682;2024-02-14T13:33:57;14.3;76.5
78448;SHT31;67742;51.972;5.682;2024-02-14T13:36:26;14.3;76.5
78448;SHT31;67742;51.972;5.682;2024-02-14T13:38:54;14.3;76.5
78448;SHT31;67742;51.972;5.682;2024-02-14T13:41:23;14.4;76.5
78448;SHT31;67742;51.972;5.682;2024-02-14T13:43:51;14.4;76.6
78448;SHT31;67742;51.972;5.682;2024-02-14T13:46:19;14.4;76.7
78448;SHT31;67742;51.972;5.682;2024-02-14T13:48:49;14.4;76.7
78448;SHT31;67742;51.972;5.682;2024-02-14T13:51:17;14.4;76.7
78448;SHT31;67742;51.972;5.682;2024-02-14T13:53:48;14.4;76.7
78448;SHT31;67742;51.972;5.682;2024-02-14T13:56:16;14.4;76.7
78448;SHT31;67742;51.972;5.682;2024-02-14T13:58:48;14.4;76.8
78448;SHT31;67742;51.972;5.682;2024-02-14T14:01:17;14.4;76.8
78448;SHT31;67742;51.972;5.682;2024-02-14T14:03:46;14.4;76.8
78448;SHT31;67742;51.972;5.682;2024-02-14T14:06:16;14.4;76.9
78448;SHT31;67742;51.972;5.682;2024-02-14T14:08:45;14.4;76.9
78448;SHT31;67742;51.972;5.682;2024-02-14T14:11:16;14.4;76.9
78448;SHT31;67742;51.972;5.682;2024-02-14T14:13:45;14.4;77.0
78448;SHT31;67742;51.972;5.682;2024-02-14T14:16:14;14.4;77.0
78448;SHT31;67742;51.972;5.682;2024-02-14T14:18:44;14.4;77.0
78448;SHT31;67742;51.972;5.682;2024-02-14T14:21:12;14.4;77.1
78448;SHT31;67742;51.972;5.682;2024-02-14T14:23:41;14.4;77.0
78448;SHT31;67742;51.972;5.682;2024-02-14T14:26:10;14.4;77.1
78448;SHT31;67742;51.972;5.682;2024-02-14T14:28:39;14.4;77.2
78448;SHT31;67742;51.972;5.682;2024-02-14T14:31:08;14.4;77.3
78448;SHT31;67742;51.972;5.682;2024-02-14T14:33:38;14.4;77.2
78448;SHT31;67742;51.972;5.682;2024-02-14T14:36:07;14.5;77.3
78448;SHT31;67742;51.972;5.682;2024-02-14T14:38:35;14.5;77.3
78448;SHT31;67742;51.972;5.682;2024-02-14T14:41:04;14.5;77.2
78448;SHT31;67742;51.972;5.682;2024-02-14T14:43:33;14.5;77.3
78448;SHT31;67742;51.972;5.682;2024-02-14T14:46:01;14.5;77.3
78448;SHT31;67742;51.972;5.682;2024-02-14T14:48:31;14.5;77.2
78448;SHT31;67742;51.972;5.682;2024-02-14T14:51:00;14.6;77.2
78448;SHT31;67742;51.972;5.682;2024-02-14T14:53:28;14.6;77.2
78448;SHT31;67742;51.972;5.682;2024-02-14T14:55:57;14.6;77.2
78448;SHT31;67742;51.972;5.682;2024-02-14T14:58:26;14.6;77.2
78448;SHT31;67742;51.972;5.682;2024-02-14T15:00:58;14.6;77.2
78448;SHT31;67742;51.972;5.682;2024-02-14T15:03:32;14.6;77.2
78448;SHT31;67742;51.972;5.682;2024-02-14T15:06:00;14.6;77.2
78448;SHT31;67742;51.972;5.682;2024-02-14T15:08:29;14.7;77.1
78448;SHT31;67742;51.972;5.682;2024-02-14T15:11:00;14.7;77.1
78448;SHT31;67742;51.972;5.682;2024-02-14T15:13:29;14.7;77.0
78448;SHT31;67742;51.972;5.682;2024-02-14T15:16:00;14.7;77.0
78448;SHT31;67742;51.972;5.682;2024-02-14T15:18:30;14.7;76.9
78448;SHT31;67742;51.972;5.682;2024-02-14T15:20:59;14.7;76.9
78448;SHT31;67742;51.972;5.682;2024-02-14T15:23:30;14.7;76.8
78448;SHT31;67742;51.972;5.682;2024-02-14T15:25:58;14.7;76.8
78448;SHT31;67742;51.972;5.682;2024-02-14T15:28:30;14.8;76.8
78448;SHT31;67742;51.972;5.682;2024-02-14T15:31:00;14.8;76.7
78448;SHT31;67742;51.972;5.682;2024-02-14T15:33:47;14.8;76.7
78448;SHT31;67742;51.972;5.682;2024-02-14T15:36:15;14.8;76.6
78448;SHT31;67742;51.972;5.682;2024-02-14T15:38:43;14.8;76.6
78448;SHT31;67742;51.972;5.682;2024-02-14T15:41:12;14.8;76.5
78448;SHT31;67742;51.972;5.682;2024-02-14T15:43:41;14.8;76.5
78448;SHT31;67742;51.972;5.682;2024-02-14T15:46:10;14.8;76.5
78448;SHT31;67742;51.972;5.682;2024-02-14T15:48:40;14.8;76.5
78448;SHT31;67742;51.972;5.682;2024-02-14T15:51:09;14.8;76.5
78448;SHT31;67742;51.972;5.682;2024-02-14T15:53:39;14.8;76.6
78448;SHT31;67742;51.972;5.682;2024-02-14T15:56:08;14.8;76.6
78448;SHT31;67742;51.972;5.682;2024-02-14T15:58:38;14.8;76.7
78448;SHT31;67742;51.972;5.682;2024-02-14T16:01:06;14.8;76.7
78448;SHT31;67742;51.972;5.682;2024-02-14T16:03:35;14.8;76.6
78448;SHT31;67742;51.972;5.682;2024-02-14T16:06:04;14.8;76.6
78448;SHT31;67742;51.972;5.682;2024-02-14T16:08:33;14.8;76.6
78448;SHT31;67742;51.972;5.682;2024-02-14T16:11:01;14.8;76.6
78448;SHT31;67742;51.972;5.682;2024-02-14T16:13:30;14.8;76.7
78448;SHT31;67742;51.972;5.682;2024-02-14T16:15:59;14.8;76.7